CheckWX is a tool to help pilots better visualize weather data.  It is not intended as a substitute for an official pre-flight weather briefing.

04:43:12 UTC

ESNU METAR
Umeå Airport
Umeå, Sweden
Current

23 mins ago

ESNU 250420Z 32003KT CAVOK 01/M01 Q1025 R14/09//95
Observed
Apr-25 @ 04:20 UTC
Wind
  • 320° at 3 KTS
Visibility
10,000+ meters
Flight Rules
VFR
Cloud Levels
  • Clear skies
Temperature
C / 34°F
Dewpoint
-1°C / 30°F
Humidity
87%
Altimeter
30.27" Hg
Pressure
1024.92 hPa
Previous

53 mins ago

ESNU 250350Z 34003KT CAVOK 00/M02 Q1025 R14/09//95
Observed
Apr-25 @ 03:50 UTC
Wind
  • 340° at 3 KTS
Visibility
10,000+ meters
Flight Rules
VFR
Cloud Levels
  • Clear skies
Temperature
C / 32°F
Dewpoint
-2°C / 28°F
Humidity
87%
Altimeter
30.27" Hg
Pressure
1024.92 hPa
Previous

1 hour ago

ESNU 250320Z 34003KT CAVOK M01/M03 Q1025 R14/09//95
Observed
Apr-25 @ 03:20 UTC
Wind
  • 340° at 3 KTS
Visibility
10,000+ meters
Flight Rules
VFR
Cloud Levels
  • Clear skies
Temperature
-1°C / 30°F
Dewpoint
-3°C / 27°F
Humidity
86%
Altimeter
30.27" Hg
Pressure
1024.92 hPa